Historyczne dane pomiarowe

Dodano dane terminowe – wersja testowa.

Dane z okresu 1951-2019

Wersja bazy: 1.34 [2019-03-16, lista zmian], aktualizacja planowana na 2019-04-15

Dane meteo z obszaru Polski uzyskane na podstawie danych udostępnionych przez Instytut Meteorologii i Gospodarki Wodnej – Państwowy Instytut Badawczy.

 

Wybierz Datę:    

       

TemperaturaWilgotnośćZachmurzenieWiatrCiśnienieWidzialnośćZjawiska
 Data    tng td wb rh cc ccl cl cm ch dir g1 g2 mslp ppp      
1994-08-13 00:00:00 15.3--- 13.3 14.188wxwxwx0wx--1011.5 971.2 0.1---wxw1
1994-08-13 01:00:00 15.8--- 13.8 14.688wxwxwx1wx--1011.4 971.2----wx
1994-08-13 02:00:00 15.6--- 12.4 13.781wxwxwx1wx--1011.3 971.1----wx
1994-08-13 03:00:00 15.0--- 12.4 13.585wxwxwx0wx--1011.3 971.0----wx
1994-08-13 04:00:00 14.9--- 13.2 13.990wxwxwxwx0wx--1011.3 971.0----wx
1994-08-13 05:00:00 15.2--- 13.0 13.987wxwxwxwx0wx--1011.1 970.8----wx
1994-08-13 06:00:00 16.4--- 12.1 13.976wxwxwxwx0wx--1010.7 970.6 0.0---wx
1994-08-13 07:00:00 17.5--- 13.2 14.976wxwxwxwx3wx--1010.2 970.3----wx
1994-08-13 08:00:00 17.6--- 12.0 14.370wxwxwxwx3wx--1010.2 970.3----wx
1994-08-13 09:00:00 18.7--- 11.4 14.462wxwxwxwx4wx--1009.9 970.1----wx
1994-08-13 10:00:00 18.9--- 11.4 14.562wxwxwx4wx--1009.7 970.0----wx
1994-08-13 11:00:00 18.1--- 10.6 13.862wxwxwx4wx--1010.2 970.4----wx
1994-08-13 12:00:00 19.0--- 10.3 14.057wxwxwxwx8wx14-1010.1 970.4 0.0---wx
1994-08-13 13:00:00 19.0--- 9.3 13.553wxwxwx9wx14-1010.7 971.0----wx
1994-08-13 14:00:00 16.8--- 9.9 12.964wxwxwx8wx--1011.7 971.6----wx
1994-08-13 15:00:00 16.7--- 9.6 12.763wxwxwx6wx14-1012.4 972.3----wx
1994-08-13 16:00:00 14.4--- 10.5 12.277wxwxwx5wx--1013.4 972.9----wx
1994-08-13 17:00:00 13.6--- 10.8 12.083wxwxwxwx1wx--1013.6 973.0----wx
1994-08-13 18:00:00 13.8--- 10.0 11.778wxwxwxwx2wx--1013.5 972.9 0.0---wxw1
1994-08-13 19:00:00 14.6--- 8.5 11.367wxwxwxwx2wx--1013.9 973.4----wx
1994-08-13 20:00:00 14.0--- 8.0 10.867wxwxwxwx2wx--1014.0 973.4----wx
1994-08-13 21:00:00 14.0--- 7.6 10.665wxwxwx5wx11-1014.5 973.9----wx
1994-08-13 22:00:00 13.7--- 7.0 10.264wxwxwx4wx--1014.9 974.3----wx
1994-08-13 23:00:00 13.5--- 6.8 10.064wxwxwx4wx--1015.3 974.6----wx

 

Źródłem pochodzenia danych jest Instytut Meteorologii i Gospodarki Wodnej – Państwowy Instytut Badawczy. Dane Instytutu Meteorologii i Gospodarki Wodnej – Państwowego Instytutu Badawczego zostały przetworzone.

Dane źródłowe można odnaleźć na stronie https://dane.imgw.pl